createdAt,value
2022-08-28T00:03:30.510Z,19.99
2022-08-28T00:08:33.251Z,20
2022-08-28T00:18:38.559Z,19.92
2022-08-28T00:28:43.787Z,19.87
2022-08-28T00:33:48.146Z,19.88
2022-08-28T00:38:48.984Z,19.86
2022-08-28T00:43:51.747Z,19.83
2022-08-28T00:48:54.433Z,19.74
2022-08-28T00:58:59.882Z,19.66
2022-08-28T01:09:32.466Z,19.87
2022-08-28T01:14:37.683Z,19.85
2022-08-28T01:19:40.301Z,19.86
2022-08-28T01:24:42.946Z,19.98
2022-08-28T01:29:45.696Z,19.85
2022-08-28T01:34:50.785Z,19.81
2022-08-28T01:39:56.442Z,19.82
2022-08-28T01:50:01.817Z,19.91
2022-08-28T01:55:22.808Z,20.11
2022-08-28T02:00:25.561Z,20.02
2022-08-28T02:05:28.215Z,19.83
2022-08-28T02:15:33.383Z,19.88
2022-08-28T02:20:35.981Z,19.9
2022-08-28T02:30:44.031Z,19.78
2022-08-28T02:35:46.515Z,19.71
2022-08-28T02:40:51.776Z,19.47
2022-08-28T02:46:34.470Z,19.38
2022-08-28T02:51:37.405Z,19.42
2022-08-28T02:56:39.848Z,19.45
2022-08-28T03:01:42.553Z,19.43
2022-08-28T03:06:45.361Z,19.57
2022-08-28T03:11:48.142Z,19.44
2022-08-28T03:16:50.843Z,19.13
2022-08-28T03:21:53.294Z,19
2022-08-28T03:26:55.970Z,19.14
2022-08-28T03:31:58.740Z,18.97
2022-08-28T03:37:01.379Z,18.98
2022-08-28T03:42:03.979Z,18.93
2022-08-28T03:47:06.602Z,18.83
2022-08-28T03:52:09.407Z,18.89
2022-08-28T03:57:12.003Z,18.95
2022-08-28T04:07:17.469Z,18.59
2022-08-28T04:12:20.548Z,18.64
2022-08-28T04:22:25.807Z,18.54
2022-08-28T04:27:28.505Z,18.48
2022-08-28T04:32:31.058Z,18.51
2022-08-28T04:37:33.725Z,18.44
2022-08-28T04:42:36.216Z,18.4
2022-08-28T04:57:47.812Z,18.46
2022-08-28T05:02:50.615Z,18.44
2022-08-28T05:07:56.151Z,18.44
2022-08-28T05:12:58.522Z,18.26
2022-08-28T05:18:01.070Z,18.25
2022-08-28T05:23:03.587Z,18.4
2022-08-28T05:28:06.373Z,18.36
2022-08-28T05:33:09.028Z,18.4
2022-08-28T05:38:11.901Z,18.18
2022-08-28T05:43:14.207Z,18.3
2022-08-28T05:48:17.118Z,18.17
2022-08-28T05:53:20.209Z,18.33
2022-08-28T05:58:22.976Z,18.53
2022-08-28T06:03:25.620Z,18.75
2022-08-28T06:08:28.350Z,18.73
2022-08-28T06:18:33.837Z,19.45
2022-08-28T06:28:41.645Z,18.61
2022-08-28T06:33:44.219Z,18.84
2022-08-28T06:38:47.333Z,19.07
2022-08-28T06:43:50.157Z,19.31
2022-08-28T06:48:52.789Z,19.47
2022-08-28T06:53:55.265Z,19.71
2022-08-28T06:58:58.309Z,19.73
2022-08-28T07:04:01.240Z,20.13
2022-08-28T07:09:03.882Z,20.04
2022-08-28T07:24:12.327Z,21
2022-08-28T07:29:15.086Z,21.62
2022-08-28T07:34:17.634Z,20.9
2022-08-28T07:39:20.460Z,21.39
2022-08-28T07:44:23.317Z,21.17
2022-08-28T07:49:26.144Z,21.57
2022-08-28T07:54:28.833Z,21.29
2022-08-28T07:59:36.687Z,21.52
2022-08-28T08:04:34.468Z,21.13
2022-08-28T08:09:36.854Z,20.78
2022-08-28T08:14:39.524Z,20.9
2022-08-28T08:19:41.866Z,21.12
2022-08-28T08:24:44.714Z,21.3
2022-08-28T08:29:47.515Z,21.47
2022-08-28T08:34:50.328Z,21.32
2022-08-28T08:39:52.992Z,21.17
2022-08-28T08:44:55.861Z,22.05
2022-08-28T08:49:58.625Z,21.48
2022-08-28T09:00:03.967Z,21.58
2022-08-28T09:10:09.332Z,21.28
2022-08-28T09:20:14.833Z,21.38
2022-08-28T09:25:17.604Z,21.14
2022-08-28T09:45:28.982Z,22.07
2022-08-28T09:50:31.644Z,21.91
2022-08-28T09:55:34.132Z,21.29
2022-08-28T10:00:36.560Z,21.53
2022-08-28T10:05:39.467Z,21.5
2022-08-28T10:10:42.238Z,21.26
2022-08-28T10:15:44.921Z,21.03
2022-08-28T10:20:47.546Z,21.09
2022-08-28T10:25:50.197Z,20.89
2022-08-28T10:30:53.319Z,20.82
2022-08-28T10:35:55.893Z,21.13
2022-08-28T10:40:58.469Z,20.94
2022-08-28T10:46:03.727Z,20.63
2022-08-28T10:51:44.243Z,20.42
2022-08-28T10:56:45.868Z,20.36
2022-08-28T11:01:48.431Z,20
2022-08-28T11:06:51.067Z,20.13
2022-08-28T11:11:54.479Z,20.08
2022-08-28T11:16:56.650Z,19.79
2022-08-28T11:21:59.313Z,20.12
2022-08-28T11:27:04.885Z,20.07
2022-08-28T11:32:07.409Z,19.92
2022-08-28T11:42:12.674Z,20.05
2022-08-28T11:47:15.423Z,20.34
2022-08-28T11:52:18.070Z,20.55
2022-08-28T11:57:20.887Z,20.6
2022-08-28T12:02:23.921Z,20.08
2022-08-28T12:07:26.435Z,20.53
2022-08-28T12:12:29.442Z,20.48
2022-08-28T12:17:31.941Z,20.42
2022-08-28T12:22:34.702Z,20.7
2022-08-28T12:27:37.450Z,20.8
2022-08-28T12:32:40.119Z,20.93
2022-08-28T12:37:51.712Z,21.38
2022-08-28T12:42:45.729Z,21.32
2022-08-28T12:47:48.336Z,21.37
2022-08-28T12:52:51.409Z,21.37
2022-08-28T12:57:54.004Z,21.02
2022-08-28T13:03:11.337Z,20.67
2022-08-28T13:08:13.960Z,20.74
2022-08-28T13:13:16.411Z,20.42
2022-08-28T13:18:18.860Z,20.89
2022-08-28T13:23:21.642Z,21
2022-08-28T13:28:24.411Z,21.38
2022-08-28T13:33:27.099Z,20.84
2022-08-28T13:38:29.634Z,20.8
2022-08-28T13:43:32.044Z,20.41
2022-08-28T13:48:34.735Z,20.12
2022-08-28T13:53:37.416Z,20.31
2022-08-28T13:58:40.160Z,20.54
2022-08-28T14:03:42.905Z,20.76
2022-08-28T14:08:45.412Z,20.78
2022-08-28T14:13:55.076Z,20.76
2022-08-28T14:18:50.790Z,20.77
2022-08-28T14:23:53.607Z,20.71
2022-08-28T14:28:56.308Z,20.99
2022-08-28T14:33:59.042Z,22.01
2022-08-28T14:39:05.967Z,22.08
2022-08-28T14:44:04.703Z,22.34
2022-08-28T14:49:07.646Z,22.58
2022-08-28T14:54:10.187Z,22.74
2022-08-28T14:59:16.817Z,22.86
2022-08-28T15:04:15.828Z,22.89
2022-08-28T15:09:18.284Z,22.63
2022-08-28T15:14:21.838Z,22.91
2022-08-28T15:19:24.398Z,22.91
2022-08-28T15:24:27.063Z,22.97
2022-08-28T15:29:30.171Z,23.04
2022-08-28T15:34:32.668Z,23.16
2022-08-28T15:39:35.321Z,23.29
2022-08-28T15:44:37.903Z,23.32
2022-08-28T15:49:43.735Z,23.41
2022-08-28T15:54:43.381Z,23.63
2022-08-28T15:59:49.207Z,23.8
2022-08-28T16:04:48.810Z,24.03
2022-08-28T16:09:51.600Z,23.9
2022-08-28T16:14:54.192Z,23.43
2022-08-28T16:19:56.684Z,23.14
2022-08-28T16:24:59.268Z,23.1
2022-08-28T16:30:02.140Z,23.09
2022-08-28T16:35:04.552Z,22.99
2022-08-28T16:40:06.997Z,22.79
2022-08-28T16:45:09.769Z,22.67
2022-08-28T16:50:12.993Z,22.54
2022-08-28T16:55:15.584Z,22.54
2022-08-28T17:00:17.766Z,22.31
2022-08-28T17:05:20.286Z,22.21
2022-08-28T17:10:22.754Z,22.04
2022-08-28T17:15:25.531Z,22.01
2022-08-28T17:20:27.972Z,21.86
2022-08-28T17:30:33.865Z,21.74
2022-08-28T17:35:38.486Z,21.69
2022-08-28T17:40:38.682Z,21.47
2022-08-28T17:50:44.020Z,21.38
2022-08-28T17:55:46.635Z,21.27
2022-08-28T18:00:49.387Z,21.25
2022-08-28T18:05:52.108Z,21.1
2022-08-28T18:10:54.922Z,20.86
2022-08-28T18:15:57.748Z,20.69
2022-08-28T18:21:00.187Z,20.56
2022-08-28T18:26:02.737Z,20.38
2022-08-28T18:31:06.008Z,20.23
2022-08-28T18:36:08.585Z,20.15
2022-08-28T18:41:11.224Z,20.11
2022-08-28T18:46:13.924Z,20.35
2022-08-28T18:51:16.586Z,20.37
2022-08-28T18:56:18.976Z,20.18
2022-08-28T19:01:21.948Z,20.03
2022-08-28T19:06:24.704Z,19.97
2022-08-28T19:11:27.443Z,19.94
2022-08-28T19:21:32.644Z,19.78
2022-08-28T19:31:38.031Z,19.51
2022-08-28T19:41:42.921Z,19.26
2022-08-28T19:46:45.608Z,19.19
2022-08-28T19:51:48.253Z,19.13
2022-08-28T19:56:50.914Z,19.12
2022-08-28T20:01:53.718Z,19.09
2022-08-28T20:06:56.644Z,19.04
2022-08-28T20:11:59.313Z,18.93
2022-08-28T20:17:01.963Z,18.79
2022-08-28T20:22:04.612Z,18.7
2022-08-28T20:27:07.146Z,18.53
2022-08-28T20:32:09.962Z,18.41
2022-08-28T20:37:12.514Z,18.33
2022-08-28T20:42:15.296Z,18.24
2022-08-28T20:47:17.950Z,18.18
2022-08-28T20:52:20.868Z,18.06
2022-08-28T20:57:23.457Z,17.96
2022-08-28T21:02:26.550Z,17.88
2022-08-28T21:07:29.136Z,17.77
2022-08-28T21:12:31.573Z,17.66
2022-08-28T21:17:34.331Z,17.6
2022-08-28T21:22:37.071Z,17.48
2022-08-28T21:27:39.652Z,17.37
2022-08-28T21:32:42.361Z,17.48
2022-08-28T21:37:45.115Z,17.46
2022-08-28T21:42:47.700Z,17.36
2022-08-28T21:47:50.348Z,17.25
2022-08-28T21:52:53.061Z,17.21
2022-08-28T21:57:55.759Z,17.02
2022-08-28T22:02:58.697Z,17.05
2022-08-28T22:08:01.387Z,16.83
2022-08-28T22:13:04.042Z,16.8
2022-08-28T22:18:06.679Z,16.69
2022-08-28T22:23:09.322Z,16.68
2022-08-28T22:28:11.890Z,16.55
2022-08-28T22:33:14.671Z,16.56
2022-08-28T22:38:17.389Z,16.51
2022-08-28T22:43:19.983Z,16.66
2022-08-28T22:49:02.415Z,16.7
2022-08-28T22:54:05.659Z,16.7
2022-08-28T22:59:08.356Z,16.69
2022-08-28T23:04:11.059Z,16.55
2022-08-28T23:09:13.803Z,16.51
2022-08-28T23:14:16.530Z,16.41
2022-08-28T23:19:19.174Z,16.37
2022-08-28T23:24:21.907Z,16.35
2022-08-28T23:29:24.558Z,16.25
2022-08-28T23:34:27.282Z,16.13
2022-08-28T23:39:29.986Z,15.97
2022-08-28T23:44:32.590Z,15.89
2022-08-28T23:49:35.371Z,15.76
2022-08-28T23:54:38.035Z,15.69
2022-08-28T23:59:40.840Z,15.66
